Ironto, Virginia
Current Conditions -  °F | °C
As of 1:35 PM on Thursday 27 Nov 2014 (Local Time) from KBCB Reporting Station
Overcast Overcast  
Wind Chill: 27°   Ceiling: 3400
Heat Index: 36°   Visibility: 10mi
Dew Point: 28°   Wind: 14mph
Humidity: 75%   Direction: 300°WNW
Pressure: 30.09"   Gusts: 18mph
Location:  37.2234°N, 80.2676°W
Report Text: KBCB 271835Z AUTO 30012G16KT 10SM OVC034 02/M02 A3009 RMK AO2
Loading
Personal Weather Stations






























Interactive Weather Map New forecast layout! Learn more

10-Day Weather Forecast

Advertisements
Track Severe Weather on mobile